Time;durP1;ratioP1;P1;durP2;ratioP2;P2;SDS_P1;SDS_P2;PMS_P1;PMS_P2;Temp;Humidity;BMP_temperature;BMP_pressure;BME280_temperature;BME280_humidity;BME280_pressure;Samples;Min_cycle;Max_cycle;Signal;HPM_P1;HPM_P2
2022/06/17 00:01:46;;;;;;;;;;;14.50;99.90;;;;;;5032096;28;19918;-71
2022/06/17 00:04:12;;;;;;;;;;;14.50;99.90;;;;;;5025955;28;20007;-72
2022/06/17 00:06:58;;;;;;;;;;;14.60;99.90;;;;;;5028680;28;19921;-72
2022/06/17 00:09:24;;;;;;;;;;;14.50;99.90;;;;;;5030645;28;20374;-71
2022/06/17 00:11:50;;;;;;;;;;;14.50;99.90;;;;;;5025430;28;20381;-71
2022/06/17 00:14:20;;;;;;;;;;;14.40;99.90;;;;;;5020214;28;20001;-71
2022/06/17 00:16:46;;;;;;;;;;;14.40;99.90;;;;;;5028762;28;20271;-71
2022/06/17 00:19:12;;;;;;;;;;;14.40;99.90;;;;;;5025614;28;19929;-72
2022/06/17 00:21:39;;;;;;;;;;;14.30;99.90;;;;;;5028610;28;19917;-72
2022/06/17 00:24:15;;;;;;;;;;;14.20;99.90;;;;;;5027948;28;19965;-71
2022/06/17 00:26:41;;;;;;;;;;;14.20;99.90;;;;;;5044937;28;19924;-72
2022/06/17 00:29:09;;;;;;;;;;;14.20;99.90;;;;;;5033033;28;19921;-71
2022/06/17 00:31:34;;;;;;;;;;;14.30;99.90;;;;;;5011276;28;19988;-71
2022/06/17 00:34:00;;;;;;;;;;;14.30;99.90;;;;;;5028352;28;19952;-71
2022/06/17 00:36:25;;;;;;;;;;;14.30;99.90;;;;;;5036297;28;20015;-71
2022/06/17 00:38:52;;;;;;;;;;;14.30;99.90;;;;;;5039221;28;19925;-71
2022/06/17 00:41:34;;;;;;;;;;;14.20;99.90;;;;;;5047356;28;19922;-70
2022/06/17 00:44:00;;;;;;;;;;;14.20;99.90;;;;;;5031722;28;19918;-71
2022/06/17 00:46:43;;;;;;;;;;;14.00;99.90;;;;;;5031147;28;20014;-71
2022/06/17 00:49:17;;;;;;;;;;;14.00;99.90;;;;;;5031734;28;19924;-72
2022/06/17 00:51:45;;;;;;;;;;;14.00;99.90;;;;;;5031721;28;19996;-71
2022/06/17 00:54:31;;;;;;;;;;;14.00;99.90;;;;;;5031219;28;20000;-71
2022/06/17 00:56:56;;;;;;;;;;;14.00;99.90;;;;;;5030871;28;20043;-72
2022/06/17 00:59:23;;;;;;;;;;;14.00;99.90;;;;;;5011830;28;19964;-71
2022/06/17 01:01:50;;;;;;;;;;;14.00;99.90;;;;;;5029860;28;19925;-71
2022/06/17 01:04:27;;;;;;;;;;;13.90;99.90;;;;;;5031637;28;20070;-71
2022/06/17 01:06:56;;;;;;;;;;;13.80;99.90;;;;;;5032064;28;20015;-71
2022/06/17 01:12:13;;;;;;;;;;;13.80;99.90;;;;;;5028359;28;19969;-72
2022/06/17 01:14:40;;;;;;;;;;;13.80;99.90;;;;;;5025987;28;19918;-71
2022/06/17 01:17:06;;;;;;;;;;;13.80;99.90;;;;;;5014997;28;19922;-72
2022/06/17 01:19:40;;;;;;;;;;;13.80;99.90;;;;;;5011469;28;19925;-71
2022/06/17 01:22:15;;;;;;;;;;;13.80;99.90;;;;;;5011748;28;20282;-71
2022/06/17 01:24:41;;;;;;;;;;;13.80;99.90;;;;;;5025665;28;19917;-71
2022/06/17 01:27:08;;;;;;;;;;;13.80;99.90;;;;;;5021434;28;20385;-71
2022/06/17 01:29:34;;;;;;;;;;;13.80;99.90;;;;;;5030976;28;19917;-72
2022/06/17 01:32:00;;;;;;;;;;;13.90;99.90;;;;;;5042552;28;19917;-72
2022/06/17 01:34:25;;;;;;;;;;;13.80;99.90;;;;;;5001607;28;19925;-71
2022/06/17 01:36:51;;;;;;;;;;;13.80;99.90;;;;;;5024407;28;19928;-71
2022/06/17 01:39:17;;;;;;;;;;;13.80;99.90;;;;;;5010332;28;19925;-71
2022/06/17 01:41:43;;;;;;;;;;;13.80;99.90;;;;;;5014144;28;19940;-71
2022/06/17 01:44:17;;;;;;;;;;;13.70;99.90;;;;;;5013307;28;19971;-71
2022/06/17 01:46:44;;;;;;;;;;;13.70;99.90;;;;;;5029811;28;20075;-71
2022/06/17 01:49:13;;;;;;;;;;;13.70;99.90;;;;;;5029615;28;19924;-71
2022/06/17 01:51:41;;;;;;;;;;;13.70;99.90;;;;;;5015957;28;20402;-71
2022/06/17 01:54:08;;;;;;;;;;;13.70;99.90;;;;;;5029929;28;19928;-70
2022/06/17 01:56:35;;;;;;;;;;;13.70;99.90;;;;;;5045614;28;21268;-71
2022/06/17 01:59:08;;;;;;;;;;;13.80;99.90;;;;;;5018903;28;19967;-71
2022/06/17 02:01:34;;;;;;;;;;;13.80;99.90;;;;;;5028534;28;19925;-71
2022/06/17 02:04:04;;;;;;;;;;;13.80;99.90;;;;;;5030501;28;19996;-71
2022/06/17 02:06:51;;;;;;;;;;;13.80;99.90;;;;;;5012437;28;19956;-70
2022/06/17 02:09:17;;;;;;;;;;;13.80;99.90;;;;;;5045217;28;19968;-70
2022/06/17 02:11:43;;;;;;;;;;;13.80;99.90;;;;;;5040248;28;19921;-70
2022/06/17 02:14:09;;;;;;;;;;;13.80;99.90;;;;;;5028570;28;19953;-70
2022/06/17 02:16:36;;;;;;;;;;;13.80;99.90;;;;;;4996562;28;19928;-70
2022/06/17 02:19:02;;;;;;;;;;;13.80;99.90;;;;;;5029573;28;19918;-71
2022/06/17 02:21:32;;;;;;;;;;;13.70;99.90;;;;;;5019169;28;19921;-71
2022/06/17 02:23:59;;;;;;;;;;;13.70;99.90;;;;;;5027938;28;20020;-71
2022/06/17 02:26:24;;;;;;;;;;;13.70;99.90;;;;;;5028327;28;19917;-71
2022/06/17 02:28:50;;;;;;;;;;;13.70;99.90;;;;;;5043757;28;19917;-71
2022/06/17 02:31:16;;;;;;;;;;;13.70;99.90;;;;;;5031787;28;19967;-71
2022/06/17 02:33:43;;;;;;;;;;;13.60;99.90;;;;;;5027656;28;19945;-70
2022/06/17 02:36:13;;;;;;;;;;;13.60;99.90;;;;;;5012103;28;19921;-71
2022/06/17 02:38:39;;;;;;;;;;;13.60;99.90;;;;;;5045173;28;20008;-71
2022/06/17 02:41:12;;;;;;;;;;;13.60;99.90;;;;;;5027605;28;19975;-71
2022/06/17 02:43:39;;;;;;;;;;;13.50;99.90;;;;;;5045820;28;19961;-71
2022/06/17 02:46:07;;;;;;;;;;;13.50;99.90;;;;;;5045328;28;19917;-71
2022/06/17 02:48:36;;;;;;;;;;;13.40;99.90;;;;;;5016615;28;19924;-71
2022/06/17 02:51:01;;;;;;;;;;;13.40;99.90;;;;;;5003436;28;20008;-71
2022/06/17 02:53:34;;;;;;;;;;;13.40;99.90;;;;;;5013326;28;20000;-71
2022/06/17 02:56:02;;;;;;;;;;;13.30;99.90;;;;;;5010756;28;19922;-72
2022/06/17 02:58:31;;;;;;;;;;;13.30;99.90;;;;;;5013299;28;20274;-72
2022/06/17 03:00:57;;;;;;;;;;;13.20;99.90;;;;;;5028656;28;19921;-72
2022/06/17 03:03:24;;;;;;;;;;;13.20;99.90;;;;;;5029944;28;19921;-72
2022/06/17 03:05:49;;;;;;;;;;;13.20;99.90;;;;;;5027567;28;20631;-72
2022/06/17 03:08:34;;;;;;;;;;;13.20;99.90;;;;;;5012877;28;19953;-71
2022/06/17 03:11:01;;;;;;;;;;;13.20;99.90;;;;;;5011821;28;19966;-71
2022/06/17 03:13:31;;;;;;;;;;;13.20;99.90;;;;;;5010992;28;19928;-71
2022/06/17 03:15:59;;;;;;;;;;;13.10;99.90;;;;;;5026097;28;19972;-71
2022/06/17 03:18:26;;;;;;;;;;;13.10;99.90;;;;;;5012722;28;19918;-71
2022/06/17 03:20:52;;;;;;;;;;;13.10;99.90;;;;;;5033005;28;19964;-71
2022/06/17 03:23:31;;;;;;;;;;;13.00;99.90;;;;;;5043147;28;19917;-71
2022/06/17 03:26:01;;;;;;;;;;;13.00;99.90;;;;;;5011864;28;20389;-71
2022/06/17 03:28:29;;;;;;;;;;;13.10;99.90;;;;;;5012086;28;19971;-71
2022/06/17 03:30:58;;;;;;;;;;;13.10;99.90;;;;;;5041449;28;19967;-71
2022/06/17 03:33:47;;;;;;;;;;;13.10;99.90;;;;;;5035349;28;20424;-71
2022/06/17 03:36:16;;;;;;;;;;;13.10;99.90;;;;;;4988276;28;19922;-71
2022/06/17 03:38:51;;;;;;;;;;;13.10;99.90;;;;;;5032394;28;19924;-71
2022/06/17 03:41:16;;;;;;;;;;;13.10;99.90;;;;;;5043860;28;19983;-71
2022/06/17 03:43:47;;;;;;;;;;;13.20;99.90;;;;;;5034117;28;20329;-71
2022/06/17 03:46:13;;;;;;;;;;;13.20;99.90;;;;;;5043896;28;19917;-71
2022/06/17 03:48:52;;;;;;;;;;;13.20;99.90;;;;;;5027828;28;19968;-71
2022/06/17 03:51:22;;;;;;;;;;;13.20;99.90;;;;;;5025946;28;20344;-71
2022/06/17 03:53:49;;;;;;;;;;;13.20;99.90;;;;;;5026098;28;20004;-71
2022/06/17 03:56:17;;;;;;;;;;;13.20;99.90;;;;;;5012319;28;19921;-71
2022/06/17 03:58:43;;;;;;;;;;;13.20;99.90;;;;;;5010873;28;19924;-71
2022/06/17 04:01:29;;;;;;;;;;;13.30;99.90;;;;;;5046193;28;19964;-71
2022/06/17 04:03:56;;;;;;;;;;;13.40;99.90;;;;;;4998243;28;19924;-71
2022/06/17 04:06:27;;;;;;;;;;;13.40;99.90;;;;;;5027567;28;19921;-71
2022/06/17 04:08:54;;;;;;;;;;;13.60;99.90;;;;;;5044774;28;19924;-71
2022/06/17 04:11:20;;;;;;;;;;;13.70;99.90;;;;;;5026470;28;19918;-71
2022/06/17 04:13:46;;;;;;;;;;;13.70;99.90;;;;;;5032579;28;20041;-72
2022/06/17 04:16:12;;;;;;;;;;;13.70;99.90;;;;;;5042533;28;20301;-72
2022/06/17 04:18:37;;;;;;;;;;;13.70;99.90;;;;;;5048133;28;19924;-71
2022/06/17 04:21:05;;;;;;;;;;;13.70;99.90;;;;;;5011696;28;20370;-72
2022/06/17 04:23:33;;;;;;;;;;;13.80;99.90;;;;;;5042249;28;20008;-72
2022/06/17 04:26:19;;;;;;;;;;;13.80;99.90;;;;;;5029140;28;19917;-72
2022/06/17 04:28:44;;;;;;;;;;;13.90;99.90;;;;;;5004278;28;20444;-72
2022/06/17 04:31:13;;;;;;;;;;;13.90;99.90;;;;;;5044702;28;20016;-71
2022/06/17 04:33:41;;;;;;;;;;;13.90;99.90;;;;;;5026814;28;19925;-72
2022/06/17 04:36:27;;;;;;;;;;;13.90;99.90;;;;;;5031135;28;19925;-71
2022/06/17 04:39:05;;;;;;;;;;;13.90;99.90;;;;;;5048606;28;20362;-71
2022/06/17 04:41:32;;;;;;;;;;;14.00;99.90;;;;;;5047205;28;19921;-72
2022/06/17 04:43:59;;;;;;;;;;;14.00;99.90;;;;;;5021006;28;20008;-72
2022/06/17 04:46:28;;;;;;;;;;;14.10;99.90;;;;;;5014682;28;19917;-72
2022/06/17 04:48:57;;;;;;;;;;;14.10;99.90;;;;;;5013324;28;19963;-72
2022/06/17 04:51:26;;;;;;;;;;;14.10;99.90;;;;;;5029799;28;19925;-72
2022/06/17 04:53:53;;;;;;;;;;;14.20;99.90;;;;;;5011959;28;20015;-72
2022/06/17 04:56:38;;;;;;;;;;;14.30;99.90;;;;;;5029565;28;20278;-72
2022/06/17 04:59:17;;;;;;;;;;;14.30;99.90;;;;;;5047743;28;19917;-72
2022/06/17 05:01:43;;;;;;;;;;;14.30;99.90;;;;;;5030266;28;19930;-72
2022/06/17 05:04:09;;;;;;;;;;;14.30;99.90;;;;;;5037473;28;20381;-72
2022/06/17 05:06:34;;;;;;;;;;;14.30;99.90;;;;;;5032213;28;19917;-72
2022/06/17 05:09:20;;;;;;;;;;;14.40;99.90;;;;;;5009401;28;20405;-72
2022/06/17 05:11:48;;;;;;;;;;;14.40;99.90;;;;;;5047457;28;20000;-72
2022/06/17 05:14:20;;;;;;;;;;;14.50;99.90;;;;;;5009124;28;19925;-72
2022/06/17 05:16:45;;;;;;;;;;;14.50;99.90;;;;;;5014556;28;20416;-72
2022/06/17 05:19:11;;;;;;;;;;;14.60;99.90;;;;;;5030447;28;19964;-72
2022/06/17 05:21:36;;;;;;;;;;;14.70;99.90;;;;;;5047052;28;19921;-72
2022/06/17 05:24:02;;;;;;;;;;;14.80;99.90;;;;;;5012716;28;19917;-72
2022/06/17 05:26:28;;;;;;;;;;;14.90;99.90;;;;;;5028824;28;19932;-72
2022/06/17 05:28:53;;;;;;;;;;;14.90;99.90;;;;;;5028763;28;19917;-72
2022/06/17 05:31:22;;;;;;;;;;;14.90;99.90;;;;;;5027582;28;19979;-72
2022/06/17 05:33:48;;;;;;;;;;;15.00;99.90;;;;;;5030268;28;19925;-72
2022/06/17 05:36:13;;;;;;;;;;;15.10;99.90;;;;;;5029867;28;19921;-72
2022/06/17 05:38:39;;;;;;;;;;;15.20;99.90;;;;;;5029515;28;19924;-72
2022/06/17 05:41:05;;;;;;;;;;;15.30;99.90;;;;;;5029063;28;19976;-72
2022/06/17 05:43:31;;;;;;;;;;;15.20;99.90;;;;;;5019243;28;19917;-72
2022/06/17 05:45:57;;;;;;;;;;;15.20;99.90;;;;;;5011802;28;19926;-72
2022/06/17 05:48:22;;;;;;;;;;;15.20;99.90;;;;;;5021825;28;19921;-72
2022/06/17 05:50:48;;;;;;;;;;;15.20;99.90;;;;;;5041913;28;19924;-72
2022/06/17 05:53:13;;;;;;;;;;;15.30;99.90;;;;;;5028867;28;19955;-72
2022/06/17 05:55:39;;;;;;;;;;;15.20;99.90;;;;;;4998942;28;20353;-72
2022/06/17 05:58:05;;;;;;;;;;;15.30;99.90;;;;;;5044310;28;20293;-72
2022/06/17 06:00:32;;;;;;;;;;;15.20;99.90;;;;;;4995333;28;20287;-72
2022/06/17 06:02:59;;;;;;;;;;;15.30;99.90;;;;;;5046121;28;19921;-72
2022/06/17 06:05:26;;;;;;;;;;;15.40;99.90;;;;;;5028594;28;19917;-72
2022/06/17 06:07:52;;;;;;;;;;;15.40;99.90;;;;;;5012995;28;19932;-72
2022/06/17 06:10:18;;;;;;;;;;;15.60;99.90;;;;;;5032182;28;19918;-72
2022/06/17 06:13:03;;;;;;;;;;;15.60;99.90;;;;;;5033303;28;19917;-72
2022/06/17 06:15:35;;;;;;;;;;;15.60;99.90;;;;;;5021680;28;19924;-72
2022/06/17 06:18:01;;;;;;;;;;;15.70;99.90;;;;;;5020391;28;20385;-72
2022/06/17 06:20:27;;;;;;;;;;;15.60;99.90;;;;;;5044289;28;19927;-72
2022/06/17 06:22:52;;;;;;;;;;;15.70;99.90;;;;;;5046348;28;19917;-72
2022/06/17 06:25:18;;;;;;;;;;;15.70;99.90;;;;;;5018127;28;19918;-72
2022/06/17 06:27:43;;;;;;;;;;;15.80;99.90;;;;;;4993175;28;19918;-72
2022/06/17 06:30:15;;;;;;;;;;;15.80;99.90;;;;;;5002196;28;19917;-72
2022/06/17 06:32:46;;;;;;;;;;;15.80;99.90;;;;;;5006745;28;19921;-72
2022/06/17 06:35:13;;;;;;;;;;;15.90;99.90;;;;;;5013241;28;20004;-72
2022/06/17 06:37:39;;;;;;;;;;;15.90;99.90;;;;;;5011363;28;20017;-72
2022/06/17 06:40:05;;;;;;;;;;;16.00;99.90;;;;;;5013399;28;20011;-72
2022/06/17 06:42:30;;;;;;;;;;;16.00;99.90;;;;;;5012479;28;19980;-72
2022/06/17 06:44:56;;;;;;;;;;;16.00;99.90;;;;;;5029540;28;19925;-72
2022/06/17 06:47:21;;;;;;;;;;;16.10;99.90;;;;;;5029590;28;19917;-72
2022/06/17 06:49:47;;;;;;;;;;;16.10;99.90;;;;;;5027237;28;20332;-72
2022/06/17 06:52:12;;;;;;;;;;;16.10;99.90;;;;;;5028961;28;19968;-72
2022/06/17 06:54:38;;;;;;;;;;;16.20;99.90;;;;;;5029555;28;20008;-72
2022/06/17 06:57:04;;;;;;;;;;;16.30;99.90;;;;;;4994668;28;20392;-72
2022/06/17 06:59:29;;;;;;;;;;;16.40;99.90;;;;;;4993409;28;19945;-72
2022/06/17 07:01:54;;;;;;;;;;;16.50;99.90;;;;;;5026526;28;20278;-72
2022/06/17 07:04:21;;;;;;;;;;;16.60;99.90;;;;;;5009696;28;19917;-72
2022/06/17 07:06:47;;;;;;;;;;;16.80;99.90;;;;;;5002881;28;19922;-72
2022/06/17 07:09:12;;;;;;;;;;;16.90;99.90;;;;;;5045906;28;20059;-72
2022/06/17 07:11:38;;;;;;;;;;;17.10;99.90;;;;;;5042721;28;20008;-72
2022/06/17 07:14:04;;;;;;;;;;;17.10;99.90;;;;;;5028959;28;20007;-72
2022/06/17 07:16:29;;;;;;;;;;;17.20;99.90;;;;;;4996500;28;20324;-72
2022/06/17 07:18:55;;;;;;;;;;;17.30;99.90;;;;;;4996250;28;19917;-72
2022/06/17 07:21:20;;;;;;;;;;;17.30;99.90;;;;;;5046178;28;19918;-72
2022/06/17 07:23:46;;;;;;;;;;;17.50;99.90;;;;;;5029539;28;19921;-72
2022/06/17 07:26:16;;;;;;;;;;;17.60;99.90;;;;;;5029179;28;19917;-72
2022/06/17 07:28:42;;;;;;;;;;;17.60;99.90;;;;;;5042809;28;19917;-72
2022/06/17 07:31:07;;;;;;;;;;;17.70;99.90;;;;;;5028792;28;20378;-71
2022/06/17 07:33:34;;;;;;;;;;;17.70;99.90;;;;;;4994411;28;19924;-72
2022/06/17 07:36:01;;;;;;;;;;;17.80;99.90;;;;;;5027857;28;19922;-71
2022/06/17 07:41:24;;;;;;;;;;;18.10;99.90;;;;;;5008792;28;19925;-72
2022/06/17 07:43:49;;;;;;;;;;;18.20;99.90;;;;;;5031753;28;20001;-71
2022/06/17 07:46:15;;;;;;;;;;;18.30;99.90;;;;;;5025831;28;19996;-80
2022/06/17 07:48:40;;;;;;;;;;;18.50;99.90;;;;;;5049687;28;20400;-80
2022/06/17 07:51:06;;;;;;;;;;;18.80;99.90;;;;;;5029405;28;19964;-72
2022/06/17 07:53:34;;;;;;;;;;;19.00;99.90;;;;;;5015630;28;20014;-71
2022/06/17 07:56:00;;;;;;;;;;;19.20;99.90;;;;;;5019675;28;20384;-71
2022/06/17 07:58:25;;;;;;;;;;;19.30;99.90;;;;;;5035506;28;20072;-71
2022/06/17 08:00:51;;;;;;;;;;;19.40;99.90;;;;;;5010626;28;19988;-71
2022/06/17 08:03:17;;;;;;;;;;;19.60;99.90;;;;;;5034190;28;20400;-71
2022/06/17 08:05:45;;;;;;;;;;;19.60;99.90;;;;;;5000537;28;20343;-71
2022/06/17 08:08:11;;;;;;;;;;;19.70;99.90;;;;;;5015544;28;19917;-71
2022/06/17 08:10:37;;;;;;;;;;;19.70;99.90;;;;;;5047130;28;19928;-71
2022/06/17 08:13:07;;;;;;;;;;;19.70;99.90;;;;;;5007116;28;19992;-72
2022/06/17 08:15:33;;;;;;;;;;;19.80;99.90;;;;;;5012105;28;19922;-72
2022/06/17 08:17:59;;;;;;;;;;;19.80;99.90;;;;;;5012442;28;19922;-72
2022/06/17 08:20:28;;;;;;;;;;;19.80;99.90;;;;;;5014673;28;20953;-72
2022/06/17 08:22:53;;;;;;;;;;;19.80;99.90;;;;;;5034511;28;19963;-71
2022/06/17 08:25:19;;;;;;;;;;;19.80;99.90;;;;;;4998382;28;19921;-72
2022/06/17 08:27:46;;;;;;;;;;;20.00;99.90;;;;;;5048783;28;19964;-72
2022/06/17 08:30:12;;;;;;;;;;;20.10;99.90;;;;;;5047596;28;19917;-71
2022/06/17 08:32:48;;;;;;;;;;;20.20;99.90;;;;;;5013139;28;20000;-71
2022/06/17 08:35:18;;;;;;;;;;;20.30;99.90;;;;;;5014057;28;19924;-71
2022/06/17 08:37:44;;;;;;;;;;;20.60;99.90;;;;;;5027685;28;19929;-72
2022/06/17 08:40:16;;;;;;;;;;;20.80;99.90;;;;;;5030615;28;20397;-72
2022/06/17 08:42:58;;;;;;;;;;;21.00;99.90;;;;;;5041921;28;19918;-71
2022/06/17 08:45:32;;;;;;;;;;;21.10;99.90;;;;;;5022598;28;19917;-72
2022/06/17 08:48:08;;;;;;;;;;;21.20;99.90;;;;;;4998331;28;19917;-72
2022/06/17 08:50:57;;;;;;;;;;;21.30;99.90;;;;;;5031282;28;19918;-71
2022/06/17 08:53:37;;;;;;;;;;;21.40;99.90;;;;;;4992165;28;20000;-71
2022/06/17 08:56:11;;;;;;;;;;;21.30;99.90;;;;;;5014325;28;19921;-71
2022/06/17 08:58:43;;;;;;;;;;;21.30;99.90;;;;;;5025461;28;19961;-71
2022/06/17 09:01:16;;;;;;;;;;;21.20;99.90;;;;;;5048575;28;19917;-70
2022/06/17 09:03:57;;;;;;;;;;;21.20;99.90;;;;;;5015130;28;20370;-71
2022/06/17 09:06:35;;;;;;;;;;;21.10;99.90;;;;;;5028298;28;19925;-71
2022/06/17 09:09:13;;;;;;;;;;;21.00;99.90;;;;;;4995704;28;20270;-71
2022/06/17 09:11:47;;;;;;;;;;;20.90;99.90;;;;;;4995756;28;20297;-71
2022/06/17 09:14:13;;;;;;;;;;;20.90;99.90;;;;;;5011705;28;19967;-71
2022/06/17 09:16:48;;;;;;;;;;;20.90;99.90;;;;;;5015942;28;20012;-72
2022/06/17 09:19:18;;;;;;;;;;;20.90;99.90;;;;;;5047477;28;20332;-71
2022/06/17 09:21:43;;;;;;;;;;;20.80;99.90;;;;;;5015105;28;19918;-72
2022/06/17 09:24:11;;;;;;;;;;;20.90;99.90;;;;;;5031204;28;19917;-72
2022/06/17 09:26:50;;;;;;;;;;;20.90;99.90;;;;;;5046484;28;19990;-72
2022/06/17 09:29:33;;;;;;;;;;;20.90;99.90;;;;;;5047661;28;19917;-72
2022/06/17 09:32:05;;;;;;;;;;;20.90;99.90;;;;;;4998222;28;19917;-72
2022/06/17 09:34:33;;;;;;;;;;;20.90;99.90;;;;;;5008895;28;19917;-72
2022/06/17 09:37:14;;;;;;;;;;;20.90;99.90;;;;;;5030624;28;19927;-71
2022/06/17 09:39:47;;;;;;;;;;;21.00;99.90;;;;;;5005813;28;19922;-71
2022/06/17 09:42:17;;;;;;;;;;;21.10;99.90;;;;;;4995284;28;19924;-72
2022/06/17 09:44:47;;;;;;;;;;;21.10;99.90;;;;;;5041629;28;20289;-72
2022/06/17 09:47:12;;;;;;;;;;;21.20;99.90;;;;;;5028304;28;19917;-72
2022/06/17 09:49:41;;;;;;;;;;;21.30;99.90;;;;;;5047662;28;19925;-72
2022/06/17 09:52:07;;;;;;;;;;;21.40;99.90;;;;;;5030719;28;19933;-71
2022/06/17 09:54:34;;;;;;;;;;;21.50;99.90;;;;;;5030663;28;19917;-71
2022/06/17 09:57:00;;;;;;;;;;;21.70;99.90;;;;;;5043134;28;20286;-72
2022/06/17 09:59:34;;;;;;;;;;;21.70;99.90;;;;;;5047090;28;19927;-71
2022/06/17 10:02:20;;;;;;;;;;;21.80;99.90;;;;;;5014106;28;19925;-72
2022/06/17 10:04:46;;;;;;;;;;;21.80;99.90;;;;;;4996106;28;20008;-72
2022/06/17 10:07:35;;;;;;;;;;;21.80;99.90;;;;;;5030433;28;19972;-72
2022/06/17 10:10:08;;;;;;;;;;;21.80;99.90;;;;;;4987062;28;19921;-72
2022/06/17 10:12:42;;;;;;;;;;;21.80;99.90;;;;;;5025760;28;19926;-72
2022/06/17 10:15:19;;;;;;;;;;;21.70;99.90;;;;;;5028118;28;20382;-72
2022/06/17 10:20:37;;;;;;;;;;;21.70;99.90;;;;;;5010195;28;19917;-72
2022/06/17 10:23:03;;;;;;;;;;;21.70;99.90;;;;;;5031733;28;19917;-72
2022/06/17 10:25:28;;;;;;;;;;;21.80;99.90;;;;;;5008564;28;19971;-71
2022/06/17 10:27:54;;;;;;;;;;;21.80;99.90;;;;;;5038575;28;20366;-71
2022/06/17 10:30:25;;;;;;;;;;;21.80;99.90;;;;;;5044625;28;19988;-71
2022/06/17 10:32:52;;;;;;;;;;;21.80;99.90;;;;;;5029444;28;19963;-72
2022/06/17 10:35:20;;;;;;;;;;;21.80;99.90;;;;;;5009308;28;19948;-72
2022/06/17 10:37:46;;;;;;;;;;;21.80;99.90;;;;;;5006734;28;19928;-72
2022/06/17 10:40:15;;;;;;;;;;;21.80;99.90;;;;;;5045764;28;19921;-72
2022/06/17 10:42:46;;;;;;;;;;;21.70;99.90;;;;;;5012155;28;19968;-71
2022/06/17 10:45:16;;;;;;;;;;;21.70;99.90;;;;;;5045715;28;19991;-72
2022/06/17 10:47:47;;;;;;;;;;;21.70;99.90;;;;;;5012475;28;20016;-72
2022/06/17 10:50:18;;;;;;;;;;;21.70;99.90;;;;;;5027125;28;20015;-72
2022/06/17 10:53:07;;;;;;;;;;;21.70;99.90;;;;;;5011083;28;20337;-72
2022/06/17 10:55:41;;;;;;;;;;;21.80;99.90;;;;;;5042960;28;19917;-72
2022/06/17 10:58:09;;;;;;;;;;;21.80;99.90;;;;;;5043811;28;19980;-72
2022/06/17 11:00:41;;;;;;;;;;;21.90;99.90;;;;;;5006251;28;19921;-72
2022/06/17 11:03:35;;;;;;;;;;;21.90;99.90;;;;;;5028381;28;20552;-72
2022/06/17 11:06:04;;;;;;;;;;;22.00;99.90;;;;;;4990775;28;19918;-71
2022/06/17 11:08:42;;;;;;;;;;;22.10;99.90;;;;;;5009727;28;20438;-72
2022/06/17 11:13:54;;;;;;;;;;;22.30;99.90;;;;;;5039934;28;19917;-72
2022/06/17 11:16:21;;;;;;;;;;;22.50;99.90;;;;;;5025760;28;19937;-70
2022/06/17 11:18:52;;;;;;;;;;;22.50;99.90;;;;;;5008455;28;19929;-70
2022/06/17 11:21:21;;;;;;;;;;;22.60;99.90;;;;;;5044827;28;19917;-70
2022/06/17 11:23:49;;;;;;;;;;;22.60;99.90;;;;;;5022359;28;20234;-70
2022/06/17 11:26:16;;;;;;;;;;;22.60;99.90;;;;;;5010331;28;19924;-70
2022/06/17 11:28:47;;;;;;;;;;;22.60;99.90;;;;;;5042521;28;19967;-70
2022/06/17 11:31:29;;;;;;;;;;;22.60;99.90;;;;;;5020059;28;19961;-70
2022/06/17 11:33:54;;;;;;;;;;;22.60;99.90;;;;;;5010577;28;20377;-70
2022/06/17 11:36:22;;;;;;;;;;;22.60;99.90;;;;;;5023257;28;19928;-70
2022/06/17 11:38:48;;;;;;;;;;;22.60;99.90;;;;;;5027622;28;19917;-70
2022/06/17 11:41:25;;;;;;;;;;;22.70;99.90;;;;;;5027373;28;19928;-69
2022/06/17 11:43:52;;;;;;;;;;;22.70;99.90;;;;;;5024970;28;20381;-72
2022/06/17 11:46:17;;;;;;;;;;;22.70;99.90;;;;;;5009220;28;20377;-72
2022/06/17 11:48:47;;;;;;;;;;;22.80;99.90;;;;;;5014434;28;19960;-72
2022/06/17 11:51:15;;;;;;;;;;;23.00;99.90;;;;;;5024693;28;19918;-71
2022/06/17 11:53:49;;;;;;;;;;;23.10;99.90;;;;;;5002055;28;19917;-72
2022/06/17 11:56:26;;;;;;;;;;;23.10;99.90;;;;;;5024888;28;20544;-72
2022/06/17 11:58:54;;;;;;;;;;;23.30;99.90;;;;;;5021289;28;20322;-71
2022/06/17 12:01:19;;;;;;;;;;;23.40;99.90;;;;;;5018674;28;19921;-72
2022/06/17 12:03:45;;;;;;;;;;;23.50;99.90;;;;;;5043888;28;19972;-72
2022/06/17 12:06:23;;;;;;;;;;;23.60;99.90;;;;;;5037748;28;19928;-72
2022/06/17 12:08:58;;;;;;;;;;;23.60;99.90;;;;;;5007180;28;19924;-72
2022/06/17 12:11:28;;;;;;;;;;;23.70;99.90;;;;;;5023617;28;19925;-72
2022/06/17 12:13:57;;;;;;;;;;;23.70;99.90;;;;;;5041872;28;19953;-72
2022/06/17 12:16:26;;;;;;;;;;;23.70;99.90;;;;;;5044588;28;19921;-72
2022/06/17 12:18:53;;;;;;;;;;;23.70;99.90;;;;;;5012027;28;19917;-72
2022/06/17 12:21:37;;;;;;;;;;;23.80;99.90;;;;;;5011865;28;19921;-72
2022/06/17 12:24:23;;;;;;;;;;;23.80;99.90;;;;;;5011786;28;19917;-72
2022/06/17 12:26:49;;;;;;;;;;;23.80;99.90;;;;;;5025200;28;19925;-72
2022/06/17 12:29:24;;;;;;;;;;;23.80;99.90;;;;;;5008310;28;19917;-72
2022/06/17 12:31:53;;;;;;;;;;;23.90;99.90;;;;;;5008734;28;20310;-72
2022/06/17 12:34:22;;;;;;;;;;;23.90;98.00;;;;;;5014916;28;19917;-72
2022/06/17 12:36:56;;;;;;;;;;;23.80;99.20;;;;;;5030733;28;20027;-72
2022/06/17 12:39:32;;;;;;;;;;;23.90;99.70;;;;;;5048081;28;19917;-72
2022/06/17 12:42:04;;;;;;;;;;;24.00;99.90;;;;;;5014492;28;20341;-72
2022/06/17 12:44:38;;;;;;;;;;;24.00;98.40;;;;;;5048172;28;19917;-72
2022/06/17 12:47:04;;;;;;;;;;;24.00;99.00;;;;;;5047727;28;19963;-72
2022/06/17 12:55:13;;;;;;;;;;;24.00;98.90;;;;;;5014906;28;19918;-72
2022/06/17 12:57:47;;;;;;;;;;;23.90;99.00;;;;;;5047839;28;20376;-72
2022/06/17 13:00:18;;;;;;;;;;;23.80;99.00;;;;;;5031866;28;19925;-72
2022/06/17 13:03:02;;;;;;;;;;;23.80;99.50;;;;;;5027656;28;19917;-72
2022/06/17 13:05:34;;;;;;;;;;;23.90;99.90;;;;;;5014232;28;20377;-72
2022/06/17 13:08:36;;;;;;;;;;;24.00;99.50;;;;;;5047134;28;19976;-72
2022/06/17 13:11:01;;;;;;;;;;;24.00;99.80;;;;;;4976839;28;19918;-72
2022/06/17 13:13:45;;;;;;;;;;;24.20;98.40;;;;;;4999642;28;20314;-72
2022/06/17 13:16:14;;;;;;;;;;;24.10;98.70;;;;;;5046829;28;19932;-72
2022/06/17 13:19:00;;;;;;;;;;;24.10;99.10;;;;;;5029261;28;19921;-72
2022/06/17 13:21:25;;;;;;;;;;;24.20;99.70;;;;;;5027643;28;19918;-72
2022/06/17 13:23:55;;;;;;;;;;;24.20;99.30;;;;;;5046084;28;19940;-72
2022/06/17 13:26:22;;;;;;;;;;;24.20;98.80;;;;;;5036367;28;19944;-72
2022/06/17 13:29:08;;;;;;;;;;;24.20;98.90;;;;;;5046706;28;20273;-71
2022/06/17 13:31:40;;;;;;;;;;;24.20;98.60;;;;;;5046552;28;19917;-71
2022/06/17 13:34:26;;;;;;;;;;;24.20;99.50;;;;;;5041920;28;19918;-71
2022/06/17 13:37:10;;;;;;;;;;;24.20;98.40;;;;;;5041308;28;20279;-77
2022/06/17 13:39:38;;;;;;;;;;;24.20;98.70;;;;;;5043492;28;20020;-76
2022/06/17 13:42:08;;;;;;;;;;;24.20;99.10;;;;;;5013604;28;20283;-71
2022/06/17 13:44:40;;;;;;;;;;;24.10;98.70;;;;;;5045572;28;19917;-71
2022/06/17 13:47:18;;;;;;;;;;;24.10;99.20;;;;;;5046666;28;19956;-71
2022/06/17 13:49:53;;;;;;;;;;;24.10;99.40;;;;;;5030341;28;19918;-71
2022/06/17 13:52:24;;;;;;;;;;;24.10;99.90;;;;;;5013824;28;19924;-71
2022/06/17 13:55:02;;;;;;;;;;;24.20;99.90;;;;;;5013348;28;19917;-71
2022/06/17 13:57:44;;;;;;;;;;;24.20;99.20;;;;;;5013250;28;20020;-71
2022/06/17 14:00:19;;;;;;;;;;;24.30;98.80;;;;;;5028800;28;19921;-71
2022/06/17 14:03:05;;;;;;;;;;;24.20;99.00;;;;;;5030032;28;20013;-71
2022/06/17 14:05:41;;;;;;;;;;;24.40;98.50;;;;;;5012267;28;20008;-71
2022/06/17 14:08:09;;;;;;;;;;;24.40;98.30;;;;;;5045745;28;20393;-71
2022/06/17 14:10:45;;;;;;;;;;;24.50;98.50;;;;;;5012567;28;20428;-71
2022/06/17 14:13:17;;;;;;;;;;;24.50;99.10;;;;;;5029813;28;20347;-71
2022/06/17 14:15:47;;;;;;;;;;;24.60;97.50;;;;;;5013432;28;19917;-71
2022/06/17 14:18:18;;;;;;;;;;;24.60;98.10;;;;;;5013075;28;19922;-71
2022/06/17 14:20:45;;;;;;;;;;;24.60;97.30;;;;;;5029086;28;19917;-71
2022/06/17 14:23:22;;;;;;;;;;;24.60;97.80;;;;;;5029841;28;19918;-71
2022/06/17 14:25:50;;;;;;;;;;;24.70;98.50;;;;;;5046027;28;19968;-71
2022/06/17 14:28:29;;;;;;;;;;;24.70;97.80;;;;;;5013443;28;20262;-71
2022/06/17 14:31:12;;;;;;;;;;;24.70;97.20;;;;;;5046345;28;19943;-71
2022/06/17 14:33:41;;;;;;;;;;;24.80;97.80;;;;;;5029385;28;19921;-71
2022/06/17 14:36:08;;;;;;;;;;;24.80;97.00;;;;;;5044849;28;19921;-71
2022/06/17 14:38:35;;;;;;;;;;;24.90;97.20;;;;;;5009971;28;20008;-71
2022/06/17 14:43:51;;;;;;;;;;;24.80;96.80;;;;;;5025826;28;19929;-71
2022/06/17 14:46:17;;;;;;;;;;;24.90;98.00;;;;;;5026153;28;20025;-71
2022/06/17 14:48:49;;;;;;;;;;;24.90;96.80;;;;;;5000823;28;20369;-71
2022/06/17 14:51:17;;;;;;;;;;;25.00;97.30;;;;;;5028869;28;19917;-71
2022/06/17 14:53:48;;;;;;;;;;;24.90;96.30;;;;;;5045976;28;20274;-71